Time;durP1;ratioP1;P1;durP2;ratioP2;P2;SDS_P1;SDS_P2;PMS_P1;PMS_P2;Temp;Humidity;BMP_temperature;BMP_pressure;BME280_temperature;BME280_humidity;BME280_pressure;Samples;Min_cycle;Max_cycle;Signal;HPM_P1;HPM_P2
2022/02/13 00:00:41;;;;;;;6.10;3.13;;;3.70;1.00;;;;;;5092616;28;20221;-73
2022/02/13 00:03:08;;;;;;;4.60;3.00;;;3.70;1.00;;;;;;5092670;28;20201;-74
2022/02/13 00:05:37;;;;;;;6.30;2.93;;;3.70;1.00;;;;;;5092449;28;20202;-74
2022/02/13 00:08:04;;;;;;;5.70;3.17;;;3.70;1.00;;;;;;5092866;28;20595;-74
2022/02/13 00:10:31;;;;;;;9.43;3.73;;;3.70;1.00;;;;;;5092746;28;20644;-74
2022/02/13 00:12:58;;;;;;;9.13;3.40;;;3.60;1.00;;;;;;5092932;28;20254;-74
2022/02/13 00:15:25;;;;;;;5.10;3.13;;;3.60;1.00;;;;;;5092247;28;20212;-74
2022/02/13 00:17:53;;;;;;;5.67;3.03;;;3.50;1.00;;;;;;5092038;28;20198;-74
2022/02/13 00:20:20;;;;;;;4.83;3.00;;;3.60;1.00;;;;;;5092491;28;20287;-74
2022/02/13 00:22:48;;;;;;;5.70;3.47;;;3.60;1.00;;;;;;5092190;28;20189;-74
2022/02/13 00:25:16;;;;;;;5.67;3.70;;;3.60;1.00;;;;;;5091895;28;20206;-74
2022/02/13 00:27:45;;;;;;;8.07;3.57;;;3.50;1.00;;;;;;5092543;28;20204;-74
2022/02/13 00:30:13;;;;;;;6.60;3.33;;;3.60;1.00;;;;;;5092154;28;20201;-74
2022/02/13 00:32:43;;;;;;;6.30;3.40;;;3.50;1.00;;;;;;5092151;28;20251;-74
2022/02/13 00:35:11;;;;;;;6.13;3.60;;;3.50;1.00;;;;;;5091679;28;20208;-74
2022/02/13 00:37:38;;;;;;;9.50;3.80;;;3.50;1.00;;;;;;5091991;28;20198;-74
2022/02/13 00:40:08;;;;;;;8.73;3.77;;;3.50;1.00;;;;;;5091700;28;20271;-74
2022/02/13 00:42:35;;;;;;;5.57;3.60;;;3.60;1.00;;;;;;5088209;28;20201;-74
2022/02/13 00:45:03;;;;;;;6.63;3.60;;;3.50;1.00;;;;;;5091132;28;20323;-74
2022/02/13 00:47:30;;;;;;;6.10;3.53;;;3.60;1.00;;;;;;5078674;28;20206;-74
2022/02/13 00:49:57;;;;;;;7.27;3.80;;;3.50;1.00;;;;;;5087515;28;20197;-74
2022/02/13 00:52:24;;;;;;;9.80;4.03;;;3.50;1.00;;;;;;5082447;28;20236;-74
2022/02/13 00:54:51;;;;;;;7.37;3.63;;;3.60;1.00;;;;;;5089565;28;20205;-74
2022/02/13 00:57:20;;;;;;;5.30;3.67;;;3.70;1.00;;;;;;5089764;28;20225;-74
2022/02/13 00:59:47;;;;;;;5.13;3.30;;;3.70;1.00;;;;;;5088304;28;20256;-73
2022/02/13 01:02:14;;;;;;;8.60;3.40;;;3.60;1.00;;;;;;5082089;28;20713;-75
2022/02/13 01:04:41;;;;;;;8.30;3.60;;;3.70;1.00;;;;;;5089061;28;20201;-75
2022/02/13 01:07:08;;;;;;;6.23;3.63;;;3.70;1.00;;;;;;5089043;28;20194;-75
2022/02/13 01:09:35;;;;;;;6.73;3.47;;;3.60;1.00;;;;;;5087039;28;20194;-75
2022/02/13 01:12:03;;;;;;;7.23;3.90;;;3.60;1.00;;;;;;5091398;28;20247;-75
2022/02/13 01:14:31;;;;;;;8.57;3.70;;;3.70;1.00;;;;;;5089172;28;20243;-75
2022/02/13 01:16:58;;;;;;;8.93;3.30;;;3.60;1.00;;;;;;5089708;28;20606;-75
2022/02/13 01:19:25;;;;;;;6.53;3.43;;;3.60;1.00;;;;;;5086682;28;20199;-75
2022/02/13 01:21:52;;;;;;;6.70;3.87;;;3.70;1.00;;;;;;5085575;28;20728;-70
2022/02/13 01:24:19;;;;;;;8.63;4.37;;;3.70;1.00;;;;;;5089768;28;20194;-78
2022/02/13 01:26:46;;;;;;;7.37;3.77;;;3.60;1.00;;;;;;5091138;28;20647;-78
2022/02/13 01:29:13;;;;;;;7.00;4.10;;;3.50;1.00;;;;;;5090153;28;20258;-79
2022/02/13 01:31:41;;;;;;;9.43;3.97;;;3.50;1.00;;;;;;5088272;28;20256;-78
2022/02/13 01:34:08;;;;;;;7.90;3.73;;;3.40;1.00;;;;;;5087371;28;20247;-78
2022/02/13 01:36:35;;;;;;;11.23;4.70;;;3.40;1.00;;;;;;5090197;28;20636;-78
2022/02/13 01:39:02;;;;;;;12.17;4.23;;;3.30;1.00;;;;;;5090369;28;20243;-78
2022/02/13 01:41:29;;;;;;;9.13;4.40;;;3.40;1.00;;;;;;5079412;28;20306;-77
2022/02/13 01:43:57;;;;;;;7.57;4.03;;;3.40;1.00;;;;;;5074629;28;20221;-77
2022/02/13 01:46:24;;;;;;;8.43;4.33;;;3.30;1.00;;;;;;5089506;28;20225;-76
2022/02/13 01:48:54;;;;;;;9.27;4.40;;;3.40;1.00;;;;;;5089236;28;20209;-77
2022/02/13 01:51:21;;;;;;;10.13;4.63;;;3.30;1.00;;;;;;5080201;28;20259;-78
2022/02/13 01:53:49;;;;;;;10.10;4.40;;;3.20;1.00;;;;;;5089882;28;20570;-77
2022/02/13 01:56:16;;;;;;;8.33;4.40;;;3.30;1.00;;;;;;5088282;28;20608;-77
2022/02/13 01:58:43;;;;;;;6.87;4.30;;;3.30;1.00;;;;;;5090327;28;20193;-77
2022/02/13 02:01:11;;;;;;;8.80;4.17;;;3.40;1.00;;;;;;5083327;28;20766;-77
2022/02/13 02:03:39;;;;;;;11.17;4.30;;;3.40;1.00;;;;;;5089545;28;20202;-78
2022/02/13 02:06:07;;;;;;;7.40;4.00;;;3.30;1.00;;;;;;5088077;28;20608;-77
2022/02/13 02:08:34;;;;;;;7.80;4.37;;;3.20;1.00;;;;;;5089522;28;20663;-77
2022/02/13 02:11:01;;;;;;;8.73;4.03;;;3.20;1.00;;;;;;5090032;28;20209;-76
2022/02/13 02:13:28;;;;;;;8.30;4.10;;;3.00;1.00;;;;;;5089966;28;20259;-77
2022/02/13 02:15:55;;;;;;;8.87;4.43;;;3.00;1.00;;;;;;5088802;28;20198;-77
2022/02/13 02:18:22;;;;;;;8.97;4.13;;;3.30;1.00;;;;;;5075636;28;20604;-77
2022/02/13 02:20:49;;;;;;;8.73;4.33;;;3.10;1.00;;;;;;5090277;28;20256;-77
2022/02/13 02:23:18;;;;;;;7.13;4.10;;;3.00;1.00;;;;;;5088342;28;20431;-76
2022/02/13 02:25:45;;;;;;;7.80;3.77;;;3.20;1.00;;;;;;5084588;28;20259;-77
2022/02/13 02:28:12;;;;;;;7.93;3.67;;;3.10;1.00;;;;;;5089153;28;20244;-78
2022/02/13 02:30:39;;;;;;;7.97;3.80;;;3.10;1.00;;;;;;5083624;28;20201;-77
2022/02/13 02:33:10;;;;;;;9.60;4.40;;;3.10;1.00;;;;;;5089484;28;20205;-77
2022/02/13 02:35:37;;;;;;;9.00;3.90;;;3.20;1.00;;;;;;5071545;28;20610;-77
2022/02/13 02:38:04;;;;;;;8.77;4.47;;;3.40;99.90;;;;;;5089817;28;20247;-77
2022/02/13 02:40:33;;;;;;;9.43;4.37;;;3.50;99.90;;;;;;5079925;28;20704;-77
2022/02/13 02:43:00;;;;;;;7.97;4.03;;;3.40;99.90;;;;;;5081828;28;20223;-76
2022/02/13 02:45:27;;;;;;;9.07;4.10;;;3.40;99.90;;;;;;5090408;28;20718;-77
2022/02/13 02:47:54;;;;;;;8.93;4.23;;;3.40;99.90;;;;;;5092083;28;20259;-77
2022/02/13 02:50:21;;;;;;;5.90;3.90;;;3.40;99.90;;;;;;5085836;28;20211;-77
2022/02/13 02:52:48;;;;;;;6.87;4.03;;;3.20;99.90;;;;;;5091732;28;20615;-77
2022/02/13 02:55:15;;;;;;;7.03;4.03;;;3.20;1.00;;;;;;5086898;28;20202;-77
2022/02/13 02:57:44;;;;;;;9.97;4.27;;;3.10;1.00;;;;;;5089284;28;20204;-77
2022/02/13 03:00:12;;;;;;;8.27;4.13;;;3.10;1.00;;;;;;5091515;28;20570;-77
2022/02/13 03:02:39;;;;;;;6.73;3.90;;;2.90;1.00;;;;;;5087507;28;20206;-77
2022/02/13 03:05:07;;;;;;;8.67;4.00;;;3.00;1.00;;;;;;5091048;28;20197;-77
2022/02/13 03:07:34;;;;;;;9.00;4.57;;;3.00;1.00;;;;;;5092742;28;20197;-77
2022/02/13 03:10:01;;;;;;;10.50;4.57;;;3.30;99.90;;;;;;5088505;28;20269;-77
2022/02/13 03:12:28;;;;;;;8.43;4.30;;;3.20;99.90;;;;;;5092106;28;20251;-77
2022/02/13 03:14:57;;;;;;;5.90;3.60;;;3.20;99.90;;;;;;5090845;28;20198;-78
2022/02/13 03:17:24;;;;;;;12.17;4.37;;;3.00;1.00;;;;;;5093559;28;20203;-77
2022/02/13 03:19:51;;;;;;;8.10;3.90;;;2.90;1.00;;;;;;5085840;28;20210;-77
2022/02/13 03:22:18;;;;;;;8.00;4.27;;;3.20;99.90;;;;;;5092958;28;20226;-77
2022/02/13 03:24:45;;;;;;;6.13;3.90;;;3.00;1.00;;;;;;5088027;28;20210;-77
2022/02/13 03:27:12;;;;;;;7.70;4.20;;;2.80;1.00;;;;;;5091576;28;20245;-77
2022/02/13 03:29:38;;;;;;;8.60;4.33;;;2.80;1.00;;;;;;5091398;28;20640;-77
2022/02/13 03:32:08;;;;;;;7.60;3.73;;;2.60;1.00;;;;;;5092904;28;20705;-77
2022/02/13 03:34:35;;;;;;;8.03;4.33;;;2.40;1.00;;;;;;5084932;28;20210;-77
2022/02/13 03:37:02;;;;;;;9.50;4.63;;;2.70;1.00;;;;;;5087815;28;20623;-78
2022/02/13 03:39:29;;;;;;;8.77;4.80;;;2.60;1.00;;;;;;5091971;28;20545;-77
2022/02/13 03:41:56;;;;;;;10.00;4.13;;;2.50;1.00;;;;;;5089138;28;20232;-77
2022/02/13 03:44:23;;;;;;;9.53;4.47;;;2.40;1.00;;;;;;5085404;28;20198;-78
2022/02/13 03:46:51;;;;;;;7.77;4.30;;;2.40;1.00;;;;;;5090014;28;20229;-78
2022/02/13 03:49:20;;;;;;;11.17;4.70;;;2.40;1.00;;;;;;5093392;28;20565;-77
2022/02/13 03:51:47;;;;;;;10.07;5.03;;;2.50;1.00;;;;;;5091265;28;20206;-78
2022/02/13 03:54:14;;;;;;;6.17;4.10;;;2.50;1.00;;;;;;5086471;28;20205;-78
2022/02/13 03:56:42;;;;;;;10.20;4.40;;;2.20;1.00;;;;;;5079662;28;20198;-74
2022/02/13 03:59:10;;;;;;;12.53;4.90;;;2.70;1.00;;;;;;5082450;28;20345;-74
2022/02/13 04:01:37;;;;;;;9.97;5.07;;;2.50;1.00;;;;;;5083514;28;20768;-74
2022/02/13 04:04:04;;;;;;;9.63;4.63;;;2.40;1.00;;;;;;5091796;28;20286;-74
2022/02/13 04:06:33;;;;;;;8.80;4.70;;;2.40;1.00;;;;;;5092788;28;20190;-74
2022/02/13 04:09:00;;;;;;;9.17;4.20;;;2.50;1.00;;;;;;5091307;28;20194;-73
2022/02/13 04:11:27;;;;;;;6.90;3.73;;;2.50;1.00;;;;;;5092334;28;20206;-74
2022/02/13 04:13:54;;;;;;;9.23;4.00;;;2.50;1.00;;;;;;5092513;28;20189;-74
2022/02/13 04:16:21;;;;;;;6.63;3.97;;;2.70;1.00;;;;;;5092383;28;20190;-74
2022/02/13 04:18:49;;;;;;;9.10;4.40;;;2.50;1.00;;;;;;5091304;28;20255;-74
2022/02/13 04:21:16;;;;;;;8.70;4.03;;;2.40;1.00;;;;;;5090486;28;20300;-74
2022/02/13 04:23:45;;;;;;;10.57;4.30;;;2.60;1.00;;;;;;5079623;28;20649;-74
2022/02/13 04:26:12;;;;;;;7.30;4.43;;;2.40;1.00;;;;;;5086091;28;20225;-73
2022/02/13 04:28:39;;;;;;;8.37;4.33;;;2.40;1.00;;;;;;5090999;28;20640;-73
2022/02/13 04:31:06;;;;;;;7.93;4.40;;;2.30;1.00;;;;;;5082376;28;20711;-75
2022/02/13 04:33:33;;;;;;;10.27;5.03;;;2.10;1.00;;;;;;5084743;28;20197;-74
2022/02/13 04:36:00;;;;;;;10.67;4.67;;;2.10;1.00;;;;;;5088400;28;20287;-74
2022/02/13 04:38:27;;;;;;;13.00;5.30;;;2.30;1.00;;;;;;5091632;28;20660;-74
2022/02/13 04:40:56;;;;;;;11.93;4.70;;;1.80;99.90;;;;;;5085499;28;20226;-74
2022/02/13 04:43:23;;;;;;;9.07;4.70;;;1.80;99.90;;;;;;5091175;28;20304;-70
2022/02/13 04:45:50;;;;;;;8.70;4.60;;;2.10;99.90;;;;;;5091637;28;20223;-70
2022/02/13 04:48:18;;;;;;;8.80;4.33;;;1.90;99.90;;;;;;5089548;28;20557;-70
2022/02/13 04:50:45;;;;;;;8.57;4.27;;;1.80;1.00;;;;;;5080439;28;20224;-70
2022/02/13 04:53:12;;;;;;;11.67;5.10;;;1.70;1.00;;;;;;5092158;28;20229;-70
2022/02/13 04:55:39;;;;;;;8.63;4.53;;;2.00;99.90;;;;;;5084128;28;20668;-70
2022/02/13 04:58:07;;;;;;;8.33;4.17;;;1.90;99.90;;;;;;5091701;28;20198;-70
2022/02/13 05:00:35;;;;;;;10.97;4.90;;;2.00;99.90;;;;;;5088387;28;20216;-70
2022/02/13 05:03:02;;;;;;;8.77;4.27;;;2.00;97.10;;;;;;5091771;28;20213;-70
2022/02/13 05:05:29;;;;;;;9.10;4.37;;;2.00;99.90;;;;;;5090201;28;20198;-70
2022/02/13 05:07:56;;;;;;;10.67;4.83;;;2.00;93.30;;;;;;5091976;28;20205;-70
2022/02/13 05:10:23;;;;;;;8.93;4.90;;;2.10;53.70;;;;;;5091591;28;20209;-70
2022/02/13 05:12:50;;;;;;;11.33;4.47;;;1.80;99.90;;;;;;5092025;28;20271;-70
2022/02/13 05:15:19;;;;;;;12.00;4.97;;;1.70;99.90;;;;;;5091126;28;20244;-70
2022/02/13 05:17:46;;;;;;;8.50;4.37;;;1.60;99.90;;;;;;5091950;28;20288;-70
2022/02/13 05:20:13;;;;;;;10.07;5.10;;;1.60;1.00;;;;;;5091561;28;20239;-70
2022/02/13 05:22:41;;;;;;;10.37;4.93;;;1.60;1.00;;;;;;5091314;28;20679;-70
2022/02/13 05:25:09;;;;;;;11.23;5.00;;;2.00;99.90;;;;;;5091249;28;20208;-70
2022/02/13 05:27:36;;;;;;;7.87;4.53;;;1.80;99.90;;;;;;5091130;28;20198;-70
2022/02/13 05:30:04;;;;;;;9.13;4.73;;;1.80;99.90;;;;;;5091405;28;20644;-70
2022/02/13 05:32:32;;;;;;;10.47;4.73;;;1.80;99.90;;;;;;5090976;28;20193;-70
2022/02/13 05:34:59;;;;;;;9.70;4.57;;;1.60;1.00;;;;;;5091052;28;20190;-69
2022/02/13 05:37:26;;;;;;;15.70;6.63;;;1.50;1.00;;;;;;5091177;28;20553;-70
2022/02/13 05:39:53;;;;;;;16.60;7.57;;;1.60;99.90;;;;;;5091155;28;20193;-70
2022/02/13 05:42:23;;;;;;;15.97;5.83;;;1.60;99.90;;;;;;5074998;28;20680;-71
2022/02/13 05:44:50;;;;;;;13.07;5.23;;;1.50;1.00;;;;;;5091107;28;20499;-70
2022/02/13 05:47:17;;;;;;;10.03;5.07;;;1.60;99.90;;;;;;5091127;28;20205;-70
2022/02/13 05:49:45;;;;;;;10.13;4.80;;;1.80;99.90;;;;;;5091181;28;20197;-70
2022/02/13 05:52:13;;;;;;;9.70;4.90;;;1.70;99.90;;;;;;5090603;28;20201;-71
2022/02/13 05:54:40;;;;;;;8.47;5.03;;;1.60;99.90;;;;;;5090702;28;20225;-71
2022/02/13 05:57:07;;;;;;;9.03;5.20;;;1.60;99.90;;;;;;5090514;28;20190;-71
2022/02/13 05:59:34;;;;;;;12.97;5.23;;;1.60;99.90;;;;;;5090739;28;20193;-71
2022/02/13 06:02:01;;;;;;;10.27;4.97;;;1.50;99.90;;;;;;5090421;28;20541;-71
2022/02/13 06:04:28;;;;;;;9.03;4.47;;;1.30;1.00;;;;;;5091152;28;20202;-71
2022/02/13 06:06:57;;;;;;;9.33;5.00;;;1.20;1.00;;;;;;5090558;28;20243;-71
2022/02/13 06:09:24;;;;;;;10.30;4.80;;;1.20;1.00;;;;;;5090982;28;20194;-71
2022/02/13 06:11:51;;;;;;;10.63;5.37;;;1.50;1.00;;;;;;5085386;28;20259;-71
2022/02/13 06:14:19;;;;;;;9.20;5.10;;;1.50;99.90;;;;;;5079036;28;20202;-71
2022/02/13 06:16:46;;;;;;;11.50;5.13;;;1.30;99.90;;;;;;5089718;28;20209;-71
2022/02/13 06:19:13;;;;;;;10.17;4.50;;;1.20;1.00;;;;;;5081152;28;20250;-71
2022/02/13 06:21:40;;;;;;;8.80;4.63;;;1.30;1.00;;;;;;5089333;28;20297;-71
2022/02/13 06:24:09;;;;;;;15.87;7.37;;;1.30;1.00;;;;;;5081819;28;20204;-71
2022/02/13 06:26:36;;;;;;;12.37;5.20;;;1.20;1.00;;;;;;5083778;28;20230;-71
2022/02/13 06:29:03;;;;;;;11.00;5.07;;;1.10;1.00;;;;;;5080494;28;20206;-71
2022/02/13 06:31:30;;;;;;;8.70;4.60;;;1.20;1.00;;;;;;5091211;28;20251;-71
2022/02/13 06:33:57;;;;;;;7.90;4.53;;;1.00;1.00;;;;;;5085445;28;20198;-71
2022/02/13 06:36:24;;;;;;;10.17;4.70;;;1.00;1.00;;;;;;5081769;28;20202;-72
2022/02/13 06:38:51;;;;;;;11.07;4.90;;;0.90;1.00;;;;;;5081357;28;20201;-71
2022/02/13 06:41:20;;;;;;;12.53;5.30;;;0.70;1.00;;;;;;5088476;28;20198;-72
2022/02/13 06:43:47;;;;;;;10.07;4.90;;;0.70;1.00;;;;;;5088953;28;20214;-72
2022/02/13 06:46:14;;;;;;;9.93;5.27;;;0.70;1.00;;;;;;5083557;28;20219;-72
2022/02/13 06:48:41;;;;;;;13.20;5.40;;;0.70;1.00;;;;;;5088092;28;20553;-72
2022/02/13 06:51:10;;;;;;;9.67;5.53;;;0.80;1.00;;;;;;5088536;28;20804;-72
2022/02/13 06:53:37;;;;;;;12.30;5.53;;;0.90;1.00;;;;;;5088410;28;20216;-72
2022/02/13 06:56:04;;;;;;;14.97;5.83;;;0.70;1.00;;;;;;5081428;28;20229;-72
2022/02/13 06:58:32;;;;;;;12.07;5.97;;;1.00;1.00;;;;;;5087501;28;20202;-72
2022/02/13 07:01:00;;;;;;;10.40;6.27;;;1.10;1.00;;;;;;5083807;28;20610;-72
2022/02/13 07:03:27;;;;;;;11.23;5.53;;;1.30;99.90;;;;;;5086705;28;20233;-72
2022/02/13 07:05:54;;;;;;;12.47;5.77;;;1.20;99.90;;;;;;5085417;28;20193;-71
2022/02/13 07:08:21;;;;;;;21.00;9.77;;;1.30;99.90;;;;;;5085362;28;20206;-72
2022/02/13 07:10:48;;;;;;;10.97;5.97;;;1.10;99.90;;;;;;5080845;28;21577;-74
2022/02/13 07:13:16;;;;;;;12.10;6.47;;;1.10;1.00;;;;;;5091660;28;20194;-69
2022/02/13 07:15:44;;;;;;;10.97;5.60;;;1.30;1.00;;;;;;5089523;28;20205;-70
2022/02/13 07:18:11;;;;;;;12.67;6.60;;;1.40;99.90;;;;;;5086518;28;20203;-70
2022/02/13 07:20:39;;;;;;;9.30;5.20;;;1.30;99.90;;;;;;5086881;28;20208;-70
2022/02/13 07:23:06;;;;;;;14.70;6.70;;;1.50;99.90;;;;;;5091211;28;20768;-71
2022/02/13 07:25:33;;;;;;;16.50;6.60;;;1.70;67.20;;;;;;5089555;28;20194;-71
2022/02/13 07:28:58;;;;;;;13.60;6.50;;;1.80;1.00;;;;;;5083997;28;20259;-71
2022/02/13 07:30:51;;;;;;;14.27;6.70;;;2.00;1.00;;;;;;5085953;28;20707;-71
2022/02/13 07:33:18;;;;;;;12.70;6.67;;;2.10;1.00;;;;;;5091109;28;20205;-71
2022/02/13 07:35:45;;;;;;;13.90;6.77;;;2.20;1.00;;;;;;5087223;28;20202;-71
2022/02/13 07:38:12;;;;;;;15.90;6.77;;;2.30;1.00;;;;;;5090782;28;20247;-74
2022/02/13 07:40:39;;;;;;;15.13;7.40;;;2.40;1.00;;;;;;5092378;28;20200;-74
2022/02/13 07:43:07;;;;;;;13.70;6.63;;;2.40;1.00;;;;;;5093005;28;20225;-74
2022/02/13 07:45:35;;;;;;;15.63;7.60;;;2.30;1.00;;;;;;5093651;28;20194;-74
2022/02/13 07:48:03;;;;;;;13.03;6.37;;;2.30;1.00;;;;;;5093823;28;20660;-74
2022/02/13 07:50:30;;;;;;;11.37;5.93;;;2.50;1.00;;;;;;5094304;28;20208;-74
2022/02/13 07:52:57;;;;;;;13.80;6.80;;;2.70;1.00;;;;;;5094581;28;20220;-74
2022/02/13 07:55:24;;;;;;;13.40;6.40;;;2.80;1.00;;;;;;5094040;28;20209;-74
2022/02/13 07:57:51;;;;;;;15.07;7.23;;;3.20;99.90;;;;;;5098768;28;20233;-74
2022/02/13 08:00:18;;;;;;;15.77;6.60;;;3.80;99.90;;;;;;5092944;28;20670;-74
2022/02/13 08:02:45;;;;;;;11.77;6.60;;;4.20;83.20;;;;;;5092780;28;20859;-74
2022/02/13 08:05:14;;;;;;;13.23;6.80;;;4.30;39.10;;;;;;5093471;28;20201;-74
2022/02/13 08:07:47;;;;;;;25.20;13.77;;;4.30;29.00;;;;;;5088907;28;20205;-74
2022/02/13 08:10:14;;;;;;;14.27;7.07;;;4.20;95.40;;;;;;5094329;28;20201;-74
2022/02/13 08:12:41;;;;;;;12.63;6.63;;;4.40;46.50;;;;;;5093004;28;20221;-74
2022/02/13 08:15:09;;;;;;;13.47;6.97;;;5.00;1.00;;;;;;5094106;28;20299;-75
2022/02/13 08:17:36;;;;;;;10.13;5.97;;;5.10;1.00;;;;;;5094250;28;20198;-75
2022/02/13 08:20:05;;;;;;;12.97;7.43;;;4.70;1.00;;;;;;5094479;28;20202;-74
2022/02/13 08:22:34;;;;;;;11.93;6.30;;;4.10;1.00;;;;;;5094036;28;20687;-74
2022/02/13 08:25:01;;;;;;;11.77;6.70;;;3.80;99.90;;;;;;5094119;28;20910;-75
2022/02/13 08:27:28;;;;;;;13.77;6.70;;;4.10;99.90;;;;;;5094028;28;20198;-74
2022/02/13 08:29:55;;;;;;;11.57;6.50;;;4.10;98.50;;;;;;5093882;28;20197;-74
2022/02/13 08:32:23;;;;;;;10.67;6.40;;;4.50;5.40;;;;;;5094090;28;20206;-74
2022/02/13 08:34:50;;;;;;;10.67;6.17;;;4.40;1.00;;;;;;5094016;28;20296;-74
2022/02/13 08:37:17;;;;;;;12.93;6.43;;;5.10;1.00;;;;;;5093112;28;20200;-74
2022/02/13 08:39:45;;;;;;;10.90;5.47;;;5.00;1.00;;;;;;5108366;28;20201;-75
2022/02/13 08:42:12;;;;;;;10.47;6.07;;;5.40;1.00;;;;;;5101471;28;20217;-74
2022/02/13 08:44:38;;;;;;;14.17;5.77;;;5.40;1.00;;;;;;5093679;28;20208;-73
2022/02/13 08:47:06;;;;;;;12.23;5.90;;;5.20;1.00;;;;;;5093437;28;20212;-73
2022/02/13 08:49:33;;;;;;;9.00;5.17;;;5.20;1.00;;;;;;5084893;28;20682;-74
2022/02/13 08:52:00;;;;;;;11.77;6.17;;;5.10;1.00;;;;;;5085565;28;20206;-74
2022/02/13 08:54:26;;;;;;;10.77;6.33;;;5.50;1.00;;;;;;5076619;28;20296;-74
2022/02/13 08:56:55;;;;;;;11.03;6.30;;;5.10;1.00;;;;;;5085175;28;20210;-74
2022/02/13 08:59:22;;;;;;;12.37;5.80;;;4.90;1.00;;;;;;5086872;28;20206;-74
2022/02/13 09:01:49;;;;;;;12.63;6.83;;;5.20;1.00;;;;;;5081144;28;20220;-74
2022/02/13 09:04:16;;;;;;;10.93;5.93;;;5.10;1.00;;;;;;5083948;28;20675;-74
2022/02/13 09:06:43;;;;;;;12.20;5.67;;;4.80;1.00;;;;;;5083009;28;20232;-74
2022/02/13 09:09:10;;;;;;;12.57;5.90;;;5.00;1.00;;;;;;5082230;28;20293;-74
2022/02/13 09:11:37;;;;;;;9.87;5.43;;;5.00;1.00;;;;;;5089335;28;20201;-74
2022/02/13 09:14:05;;;;;;;14.70;6.73;;;5.30;1.00;;;;;;5085252;28;20267;-74
2022/02/13 09:16:32;;;;;;;9.43;5.63;;;5.20;1.00;;;;;;5087491;28;20208;-74
2022/02/13 09:18:59;;;;;;;12.90;5.73;;;5.10;99.90;;;;;;5083061;28;20198;-74
2022/02/13 09:21:26;;;;;;;11.17;5.93;;;5.30;1.00;;;;;;5084827;28;20210;-74
2022/02/13 09:23:55;;;;;;;10.23;5.20;;;5.50;1.00;;;;;;5086222;28;20233;-74
2022/02/13 09:26:21;;;;;;;9.73;5.53;;;5.30;1.00;;;;;;5085357;28;20212;-74
2022/02/13 09:28:49;;;;;;;11.27;5.37;;;5.30;1.00;;;;;;5084366;28;20212;-74
2022/02/13 09:31:17;;;;;;;9.43;5.33;;;5.40;1.00;;;;;;5087915;28;20197;-74
2022/02/13 09:33:44;;;;;;;9.50;5.57;;;5.40;99.90;;;;;;5082308;28;20782;-74
2022/02/13 09:36:11;;;;;;;8.43;5.00;;;5.60;99.90;;;;;;5087208;28;20210;-74
2022/02/13 09:38:38;;;;;;;11.87;5.53;;;5.60;99.90;;;;;;5079313;28;20237;-74
2022/02/13 09:41:05;;;;;;;12.23;5.77;;;5.50;99.90;;;;;;5085748;28;20201;-74
2022/02/13 09:43:32;;;;;;;8.73;5.23;;;5.70;99.90;;;;;;5078132;28;20226;-74
2022/02/13 09:45:59;;;;;;;10.03;5.23;;;5.90;99.90;;;;;;5087177;28;20198;-74
2022/02/13 09:48:27;;;;;;;11.03;6.00;;;6.20;99.90;;;;;;5086884;28;20232;-73
2022/02/13 09:50:58;;;;;;;10.13;5.30;;;6.20;99.90;;;;;;5085498;28;20665;-74
2022/02/13 09:53:27;;;;;;;14.43;7.30;;;6.20;99.90;;;;;;5073747;28;20206;-74
2022/02/13 09:55:55;;;;;;;20.10;9.83;;;6.60;99.90;;;;;;5082731;28;20289;-74
2022/02/13 09:58:22;;;;;;;12.17;5.30;;;6.70;99.90;;;;;;5084064;28;20749;-74
2022/02/13 10:00:53;;;;;;;9.33;5.30;;;6.60;99.90;;;;;;5082497;28;20225;-74
2022/02/13 10:03:21;;;;;;;8.37;5.20;;;6.50;99.90;;;;;;5082274;28;20214;-73
2022/02/13 10:05:50;;;;;;;8.23;5.00;;;6.60;99.90;;;;;;5079288;28;20750;-75
2022/02/13 10:08:35;;;;;;;8.07;4.93;;;7.00;92.80;;;;;;5086088;28;20202;-80
2022/02/13 10:11:10;;;;;;;19.37;11.40;;;6.80;95.20;;;;;;5083826;28;20197;-73
2022/02/13 10:13:46;;;;;;;9.30;6.00;;;7.30;99.90;;;;;;5081304;28;20197;-73
2022/02/13 10:16:18;;;;;;;10.53;5.53;;;7.50;99.90;;;;;;5077714;28;20558;-73
2022/02/13 10:18:50;;;;;;;9.77;5.63;;;7.80;99.90;;;;;;5085176;28;20552;-73
2022/02/13 10:21:36;;;;;;;8.10;5.17;;;7.40;98.30;;;;;;5086169;28;20221;-73
2022/02/13 10:24:25;;;;;;;12.47;6.07;;;7.50;99.90;;;;;;5080876;28;20210;-74
2022/02/13 10:27:06;;;;;;;9.90;5.17;;;7.80;99.90;;;;;;5087171;28;20215;-73
2022/02/13 10:29:35;;;;;;;8.27;4.97;;;8.00;99.90;;;;;;5076758;28;20241;-73
2022/02/13 10:32:17;;;;;;;10.20;5.27;;;8.10;17.90;;;;;;5086276;28;20198;-68
2022/02/13 10:35:03;;;;;;;8.70;4.83;;;7.90;1.00;;;;;;5086767;28;20210;-79
2022/02/13 10:37:45;;;;;;;12.50;5.47;;;7.90;1.00;;;;;;5060011;28;20203;-79
2022/02/13 10:40:15;;;;;;;8.37;4.83;;;8.20;1.00;;;;;;5076564;28;20193;-80
2022/02/13 10:42:42;;;;;;;8.87;5.17;;;8.20;1.00;;;;;;5077141;28;20198;-80
2022/02/13 10:45:18;;;;;;;7.73;4.97;;;8.10;1.00;;;;;;5076242;28;20667;-80
2022/02/13 10:47:46;;;;;;;8.00;5.40;;;8.10;1.00;;;;;;5082296;28;20213;-80
2022/02/13 10:50:16;;;;;;;7.93;5.07;;;8.00;1.00;;;;;;5081325;28;20201;-80
2022/02/13 10:52:46;;;;;;;11.27;5.27;;;8.20;1.00;;;;;;5080522;28;20201;-79
2022/02/13 10:55:16;;;;;;;7.70;4.83;;;8.20;1.00;;;;;;5081208;28;20230;-79
2022/02/13 10:57:44;;;;;;;8.30;5.07;;;8.30;1.00;;;;;;5086610;28;20202;-80
2022/02/13 11:00:14;;;;;;;9.50;5.27;;;8.30;1.00;;;;;;5083265;28;20203;-79
2022/02/13 11:02:41;;;;;;;9.00;4.93;;;8.10;1.00;;;;;;5081542;28;20207;-72
2022/02/13 11:05:09;;;;;;;9.77;5.10;;;8.00;1.00;;;;;;5080204;28;20252;-71
2022/02/13 11:07:40;;;;;;;8.67;5.03;;;7.90;1.00;;;;;;5081442;28;20567;-72
2022/02/13 11:10:12;;;;;;;10.13;5.43;;;7.90;1.00;;;;;;5081331;28;20190;-72
2022/02/13 11:12:42;;;;;;;7.53;5.20;;;8.10;1.00;;;;;;5086136;28;20210;-71
2022/02/13 11:15:17;;;;;;;10.10;5.30;;;8.20;1.00;;;;;;5086885;28;20285;-72
2022/02/13 11:17:46;;;;;;;8.97;5.23;;;8.30;1.00;;;;;;5086548;28;20913;-72
2022/02/13 11:20:15;;;;;;;10.13;5.50;;;8.50;1.00;;;;;;5087947;28;20307;-71
2022/02/13 11:22:42;;;;;;;9.80;5.43;;;8.30;1.00;;;;;;5088547;28;20608;-72
2022/02/13 11:25:11;;;;;;;10.53;5.20;;;8.40;1.00;;;;;;5081345;28;20202;-71
2022/02/13 11:27:58;;;;;;;10.53;5.77;;;8.60;1.00;;;;;;5092607;28;20278;-71
2022/02/13 11:30:42;;;;;;;8.07;5.23;;;9.00;1.00;;;;;;5080364;28;20242;-72
2022/02/13 11:33:35;;;;;;;9.23;5.63;;;9.00;1.00;;;;;;5079911;28;20675;-72
2022/02/13 11:36:04;;;;;;;7.20;4.73;;;9.20;1.00;;;;;;5088998;28;20288;-72
2022/02/13 11:38:53;;;;;;;8.07;5.30;;;9.20;1.00;;;;;;5084881;28;20624;-72
2022/02/13 11:42:06;;;;;;;8.80;5.07;;;9.40;1.00;;;;;;5077640;28;20267;-71
2022/02/13 11:44:48;;;;;;;6.27;4.80;;;9.40;1.00;;;;;;5083273;28;20320;-72
2022/02/13 11:47:17;;;;;;;9.40;5.30;;;9.30;1.00;;;;;;5076301;28;20213;-72
2022/02/13 11:50:26;;;;;;;9.00;4.83;;;9.50;1.00;;;;;;5081015;28;20211;-73
2022/02/13 11:52:59;;;;;;;8.93;5.13;;;9.60;1.00;;;;;;5077277;28;20206;-73
2022/02/13 11:55:28;;;;;;;7.07;4.53;;;9.50;1.00;;;;;;5079238;28;20238;-70
2022/02/13 11:57:59;;;;;;;6.87;4.53;;;9.30;1.00;;;;;;5072385;28;20210;-74
2022/02/13 12:00:37;;;;;;;7.43;4.20;;;9.30;1.00;;;;;;5086104;28;20222;-75
2022/02/13 12:03:19;;;;;;;7.50;4.20;;;9.50;1.00;;;;;;5083292;28;20284;-78
2022/02/13 12:05:52;;;;;;;7.83;4.23;;;9.90;1.00;;;;;;5080740;28;20202;-76
2022/02/13 12:08:24;;;;;;;5.13;3.80;;;9.80;1.00;;;;;;5081253;28;20250;-73
2022/02/13 12:11:02;;;;;;;6.87;4.20;;;9.70;1.00;;;;;;5082736;28;20201;-73
2022/02/13 12:13:32;;;;;;;7.73;4.87;;;9.90;1.00;;;;;;5078344;28;20649;-73
2022/02/13 12:16:00;;;;;;;7.83;4.07;;;10.00;1.00;;;;;;5076105;28;20210;-73
2022/02/13 12:18:28;;;;;;;7.30;4.40;;;10.10;1.00;;;;;;5082727;28;20353;-73
2022/02/13 12:21:00;;;;;;;5.37;3.70;;;10.10;1.00;;;;;;5083918;28;20209;-73
2022/02/13 12:23:28;;;;;;;6.90;3.67;;;10.20;1.00;;;;;;5081296;28;20234;-73
2022/02/13 12:25:56;;;;;;;7.70;3.97;;;10.30;1.00;;;;;;5082604;28;20682;-73
2022/02/13 12:28:31;;;;;;;5.60;3.47;;;10.10;1.00;;;;;;5078848;28;20214;-73
2022/02/13 12:31:00;;;;;;;5.83;3.73;;;10.60;1.00;;;;;;5065610;28;20674;-73
2022/02/13 12:33:27;;;;;;;9.67;4.47;;;10.80;1.00;;;;;;5073346;28;20206;-73
2022/02/13 12:35:56;;;;;;;6.97;4.17;;;10.70;1.00;;;;;;5080811;28;20623;-73
2022/02/13 12:38:24;;;;;;;8.07;4.37;;;11.20;1.00;;;;;;5075093;28;20550;-73
2022/02/13 12:40:54;;;;;;;5.90;3.73;;;12.50;1.00;;;;;;5083413;28;20209;-73
2022/02/13 12:43:22;;;;;;;4.17;3.47;;;12.90;1.00;;;;;;5080494;28;20251;-73
2022/02/13 12:45:54;;;;;;;5.97;3.63;;;12.90;1.00;;;;;;5076927;28;20206;-74
2022/02/13 12:48:25;;;;;;;6.67;3.73;;;12.50;1.00;;;;;;5079795;28;20219;-73
2022/02/13 12:50:55;;;;;;;6.90;3.97;;;12.90;1.00;;;;;;5076898;28;20217;-73
2022/02/13 12:53:25;;;;;;;5.73;3.20;;;14.00;1.00;;;;;;5076665;28;20566;-73
2022/02/13 12:55:57;;;;;;;3.70;3.23;;;13.90;1.00;;;;;;5077915;28;20573;-73
2022/02/13 12:58:24;;;;;;;6.03;3.97;;;13.90;1.00;;;;;;5077789;28;20208;-73
2022/02/13 13:00:54;;;;;;;6.37;3.70;;;13.30;1.00;;;;;;5076873;28;20739;-73
2022/02/13 13:03:26;;;;;;;7.23;3.70;;;14.00;1.00;;;;;;5078614;28;20629;-73
2022/02/13 13:05:54;;;;;;;5.60;3.60;;;13.60;1.00;;;;;;5076553;28;20198;-74
2022/02/13 13:08:22;;;;;;;7.73;3.70;;;13.70;1.00;;;;;;5078266;28;20206;-73